<?xml version="1.0" encoding="UTF-8" standalone="no" ?>
<gpx xmlns="http://www.topografix.com/GPX/1/1" xmlns:xsi="http://www.w3.org/2001/XMLSchema-instance" xsi:schemaLocation="http://www.topografix.com/GPX/1/1 http://www.topografix.com/GPX/1/1/gpx.xsd" version="1.1" creator="VisuGPX - https://www.visugpx.com">
  <metadata>
    <name>15060152-De Saint Mammès à Champagne sur Seine</name>
  </metadata>
  <trk>
    <name><![CDATA[15060152-De Saint Mammès à Champagne sur Seine]]></name>
    <trkseg>
      <trkpt lat="48.37581" lon="2.82035">
        <ele>49</ele>
        <time>2022-07-01T18:30:35Z</time>
      </trkpt>
      <trkpt lat="48.37584" lon="2.82106">
        <ele>48</ele>
        <time>2022-07-01T18:31:38Z</time>
      </trkpt>
      <trkpt lat="48.37531" lon="2.82242">
        <ele>48</ele>
        <time>2022-07-01T18:33:58Z</time>
      </trkpt>
      <trkpt lat="48.37531" lon="2.82266">
        <ele>48</ele>
        <time>2022-07-01T18:34:19Z</time>
      </trkpt>
      <trkpt lat="48.37494" lon="2.82341">
        <ele>48</ele>
        <time>2022-07-01T18:35:42Z</time>
      </trkpt>
      <trkpt lat="48.37471" lon="2.82381">
        <ele>48</ele>
        <time>2022-07-01T18:36:29Z</time>
      </trkpt>
      <trkpt lat="48.37443" lon="2.82414">
        <ele>48</ele>
        <time>2022-07-01T18:37:16Z</time>
      </trkpt>
      <trkpt lat="48.37421" lon="2.82434">
        <ele>47</ele>
        <time>2022-07-01T18:37:51Z</time>
      </trkpt>
      <trkpt lat="48.37248" lon="2.82525">
        <ele>47</ele>
        <time>2022-07-01T18:41:55Z</time>
      </trkpt>
      <trkpt lat="48.37237" lon="2.82522">
        <ele>47</ele>
        <time>2022-07-01T18:42:10Z</time>
      </trkpt>
      <trkpt lat="48.37219" lon="2.82533">
        <ele>48</ele>
        <time>2022-07-01T18:42:36Z</time>
      </trkpt>
      <trkpt lat="48.37129" lon="2.82537">
        <ele>50</ele>
        <time>2022-07-01T18:44:36Z</time>
      </trkpt>
      <trkpt lat="48.37102" lon="2.82548">
        <ele>51</ele>
        <time>2022-07-01T18:45:13Z</time>
      </trkpt>
      <trkpt lat="48.37094" lon="2.82618">
        <ele>50</ele>
        <time>2022-07-01T18:46:16Z</time>
      </trkpt>
      <trkpt lat="48.37087" lon="2.82661">
        <ele>50</ele>
        <time>2022-07-01T18:46:56Z</time>
      </trkpt>
      <trkpt lat="48.3708" lon="2.82684">
        <ele>50</ele>
        <time>2022-07-01T18:47:18Z</time>
      </trkpt>
      <trkpt lat="48.37089" lon="2.82688">
        <ele>50</ele>
        <time>2022-07-01T18:47:31Z</time>
      </trkpt>
      <trkpt lat="48.3719" lon="2.82791">
        <ele>50</ele>
        <time>2022-07-01T18:50:13Z</time>
      </trkpt>
      <trkpt lat="48.37227" lon="2.82845">
        <ele>51</ele>
        <time>2022-07-01T18:51:22Z</time>
      </trkpt>
      <trkpt lat="48.37278" lon="2.82944">
        <ele>61</ele>
        <time>2022-07-01T18:53:13Z</time>
      </trkpt>
      <trkpt lat="48.37296" lon="2.82968">
        <ele>64</ele>
        <time>2022-07-01T18:53:45Z</time>
      </trkpt>
      <trkpt lat="48.37311" lon="2.82974">
        <ele>65</ele>
        <time>2022-07-01T18:54:06Z</time>
      </trkpt>
      <trkpt lat="48.37403" lon="2.82972">
        <ele>72</ele>
        <time>2022-07-01T18:56:09Z</time>
      </trkpt>
      <trkpt lat="48.37517" lon="2.82976">
        <ele>82</ele>
        <time>2022-07-01T18:58:41Z</time>
      </trkpt>
      <trkpt lat="48.37539" lon="2.82973">
        <ele>84</ele>
        <time>2022-07-01T18:59:10Z</time>
      </trkpt>
      <trkpt lat="48.37556" lon="2.82967">
        <ele>86</ele>
        <time>2022-07-01T18:59:34Z</time>
      </trkpt>
      <trkpt lat="48.37577" lon="2.82965">
        <ele>88</ele>
        <time>2022-07-01T19:00:02Z</time>
      </trkpt>
      <trkpt lat="48.37613" lon="2.82953">
        <ele>90</ele>
        <time>2022-07-01T19:00:51Z</time>
      </trkpt>
      <trkpt lat="48.37728" lon="2.8295">
        <ele>96</ele>
        <time>2022-07-01T19:03:25Z</time>
      </trkpt>
      <trkpt lat="48.37743" lon="2.82953">
        <ele>96</ele>
        <time>2022-07-01T19:03:45Z</time>
      </trkpt>
      <trkpt lat="48.37754" lon="2.82992">
        <ele>98</ele>
        <time>2022-07-01T19:04:22Z</time>
      </trkpt>
      <trkpt lat="48.37762" lon="2.83105">
        <ele>102</ele>
        <time>2022-07-01T19:06:03Z</time>
      </trkpt>
      <trkpt lat="48.37814" lon="2.8321">
        <ele>104</ele>
        <time>2022-07-01T19:07:59Z</time>
      </trkpt>
      <trkpt lat="48.37914" lon="2.83381">
        <ele>101</ele>
        <time>2022-07-01T19:11:21Z</time>
      </trkpt>
      <trkpt lat="48.37949" lon="2.83433">
        <ele>101</ele>
        <time>2022-07-01T19:12:27Z</time>
      </trkpt>
      <trkpt lat="48.38022" lon="2.83575">
        <ele>96</ele>
        <time>2022-07-01T19:15:06Z</time>
      </trkpt>
      <trkpt lat="48.38034" lon="2.83581">
        <ele>95</ele>
        <time>2022-07-01T19:15:23Z</time>
      </trkpt>
      <trkpt lat="48.38091" lon="2.8355">
        <ele>91</ele>
        <time>2022-07-01T19:16:44Z</time>
      </trkpt>
      <trkpt lat="48.38112" lon="2.83543">
        <ele>90</ele>
        <time>2022-07-01T19:17:12Z</time>
      </trkpt>
      <trkpt lat="48.38161" lon="2.83519">
        <ele>90</ele>
        <time>2022-07-01T19:18:21Z</time>
      </trkpt>
      <trkpt lat="48.38218" lon="2.83427">
        <ele>91</ele>
        <time>2022-07-01T19:20:13Z</time>
      </trkpt>
      <trkpt lat="48.38234" lon="2.83406">
        <ele>92</ele>
        <time>2022-07-01T19:20:41Z</time>
      </trkpt>
      <trkpt lat="48.38283" lon="2.8336">
        <ele>93</ele>
        <time>2022-07-01T19:21:58Z</time>
      </trkpt>
      <trkpt lat="48.38317" lon="2.83332">
        <ele>93</ele>
        <time>2022-07-01T19:22:50Z</time>
      </trkpt>
      <trkpt lat="48.3836" lon="2.83282">
        <ele>90</ele>
        <time>2022-07-01T19:24:02Z</time>
      </trkpt>
      <trkpt lat="48.38375" lon="2.8326">
        <ele>89</ele>
        <time>2022-07-01T19:24:30Z</time>
      </trkpt>
      <trkpt lat="48.38394" lon="2.83237">
        <ele>88</ele>
        <time>2022-07-01T19:25:03Z</time>
      </trkpt>
      <trkpt lat="48.38403" lon="2.83219">
        <ele>88</ele>
        <time>2022-07-01T19:25:23Z</time>
      </trkpt>
      <trkpt lat="48.38408" lon="2.83202">
        <ele>88</ele>
        <time>2022-07-01T19:25:39Z</time>
      </trkpt>
      <trkpt lat="48.38487" lon="2.83073">
        <ele>80</ele>
        <time>2022-07-01T19:28:15Z</time>
      </trkpt>
      <trkpt lat="48.38503" lon="2.83043">
        <ele>78</ele>
        <time>2022-07-01T19:28:49Z</time>
      </trkpt>
      <trkpt lat="48.38525" lon="2.82935">
        <ele>78</ele>
        <time>2022-07-01T19:30:29Z</time>
      </trkpt>
      <trkpt lat="48.3854" lon="2.82922">
        <ele>77</ele>
        <time>2022-07-01T19:30:52Z</time>
      </trkpt>
      <trkpt lat="48.38547" lon="2.82892">
        <ele>76</ele>
        <time>2022-07-01T19:31:20Z</time>
      </trkpt>
      <trkpt lat="48.38576" lon="2.82897">
        <ele>74</ele>
        <time>2022-07-01T19:31:59Z</time>
      </trkpt>
      <trkpt lat="48.38587" lon="2.82892">
        <ele>73</ele>
        <time>2022-07-01T19:32:14Z</time>
      </trkpt>
      <trkpt lat="48.38572" lon="2.8299">
        <ele>74</ele>
        <time>2022-07-01T19:33:43Z</time>
      </trkpt>
      <trkpt lat="48.38615" lon="2.83032">
        <ele>71</ele>
        <time>2022-07-01T19:34:52Z</time>
      </trkpt>
      <trkpt lat="48.38698" lon="2.83102">
        <ele>59</ele>
        <time>2022-07-01T19:36:59Z</time>
      </trkpt>
      <trkpt lat="48.38741" lon="2.83154">
        <ele>50</ele>
        <time>2022-07-01T19:38:12Z</time>
      </trkpt>
      <trkpt lat="48.38749" lon="2.83142">
        <ele>50</ele>
        <time>2022-07-01T19:38:27Z</time>
      </trkpt>
      <trkpt lat="48.38855" lon="2.82924">
        <ele>51</ele>
        <time>2022-07-01T19:42:27Z</time>
      </trkpt>
      <trkpt lat="48.3894" lon="2.82712">
        <ele>52</ele>
        <time>2022-07-01T19:46:06Z</time>
      </trkpt>
      <trkpt lat="48.39014" lon="2.82465">
        <ele>53</ele>
        <time>2022-07-01T19:50:07Z</time>
      </trkpt>
      <trkpt lat="48.3907" lon="2.82398">
        <ele>53</ele>
        <time>2022-07-01T19:51:42Z</time>
      </trkpt>
      <trkpt lat="48.39143" lon="2.82269">
        <ele>47</ele>
        <time>2022-07-01T19:54:12Z</time>
      </trkpt>
      <trkpt lat="48.39148" lon="2.82271">
        <ele>47</ele>
        <time>2022-07-01T19:54:19Z</time>
      </trkpt>
      <trkpt lat="48.39152" lon="2.82267">
        <ele>47</ele>
        <time>2022-07-01T19:54:25Z</time>
      </trkpt>
      <trkpt lat="48.39163" lon="2.82265">
        <ele>47</ele>
        <time>2022-07-01T19:54:40Z</time>
      </trkpt>
      <trkpt lat="48.39171" lon="2.82252">
        <ele>46</ele>
        <time>2022-07-01T19:54:56Z</time>
      </trkpt>
      <trkpt lat="48.39194" lon="2.82099">
        <ele>44</ele>
        <time>2022-07-01T19:57:15Z</time>
      </trkpt>
      <trkpt lat="48.39219" lon="2.81885">
        <ele>45</ele>
        <time>2022-07-01T20:00:27Z</time>
      </trkpt>
      <trkpt lat="48.39219" lon="2.81681">
        <ele>45</ele>
        <time>2022-07-01T20:03:28Z</time>
      </trkpt>
      <trkpt lat="48.39208" lon="2.81671">
        <ele>45</ele>
        <time>2022-07-01T20:03:45Z</time>
      </trkpt>
      <trkpt lat="48.39213" lon="2.81634">
        <ele>46</ele>
        <time>2022-07-01T20:04:19Z</time>
      </trkpt>
      <trkpt lat="48.39204" lon="2.81604">
        <ele>47</ele>
        <time>2022-07-01T20:04:48Z</time>
      </trkpt>
      <trkpt lat="48.39212" lon="2.81596">
        <ele>47</ele>
        <time>2022-07-01T20:05:01Z</time>
      </trkpt>
      <trkpt lat="48.3919" lon="2.81467">
        <ele>46</ele>
        <time>2022-07-01T20:06:59Z</time>
      </trkpt>
      <trkpt lat="48.39174" lon="2.81407">
        <ele>45</ele>
        <time>2022-07-01T20:07:56Z</time>
      </trkpt>
      <trkpt lat="48.39167" lon="2.81337">
        <ele>45</ele>
        <time>2022-07-01T20:08:59Z</time>
      </trkpt>
      <trkpt lat="48.39132" lon="2.81313">
        <ele>46</ele>
        <time>2022-07-01T20:09:50Z</time>
      </trkpt>
      <trkpt lat="48.39102" lon="2.81217">
        <ele>47</ele>
        <time>2022-07-01T20:11:24Z</time>
      </trkpt>
      <trkpt lat="48.39091" lon="2.81173">
        <ele>46</ele>
        <time>2022-07-01T20:12:06Z</time>
      </trkpt>
      <trkpt lat="48.39071" lon="2.8111">
        <ele>45</ele>
        <time>2022-07-01T20:13:08Z</time>
      </trkpt>
      <trkpt lat="48.3906" lon="2.81082">
        <ele>45</ele>
        <time>2022-07-01T20:13:37Z</time>
      </trkpt>
      <trkpt lat="48.38978" lon="2.8091">
        <ele>45</ele>
        <time>2022-07-01T20:16:44Z</time>
      </trkpt>
      <trkpt lat="48.38951" lon="2.80841">
        <ele>45</ele>
        <time>2022-07-01T20:17:55Z</time>
      </trkpt>
      <trkpt lat="48.38942" lon="2.80815">
        <ele>45</ele>
        <time>2022-07-01T20:18:21Z</time>
      </trkpt>
      <trkpt lat="48.38937" lon="2.80792">
        <ele>45</ele>
        <time>2022-07-01T20:18:43Z</time>
      </trkpt>
      <trkpt lat="48.38932" lon="2.80782">
        <ele>45</ele>
        <time>2022-07-01T20:18:54Z</time>
      </trkpt>
      <trkpt lat="48.3904" lon="2.80663">
        <ele>51</ele>
        <time>2022-07-01T20:21:52Z</time>
      </trkpt>
      <trkpt lat="48.39062" lon="2.80645">
        <ele>56</ele>
        <time>2022-07-01T20:22:26Z</time>
      </trkpt>
      <trkpt lat="48.39052" lon="2.80608">
        <ele>57</ele>
        <time>2022-07-01T20:23:01Z</time>
      </trkpt>
      <trkpt lat="48.39037" lon="2.80603">
        <ele>55</ele>
        <time>2022-07-01T20:23:22Z</time>
      </trkpt>
      <trkpt lat="48.39025" lon="2.80584">
        <ele>53</ele>
        <time>2022-07-01T20:23:45Z</time>
      </trkpt>
      <trkpt lat="48.39013" lon="2.80572">
        <ele>52</ele>
        <time>2022-07-01T20:24:04Z</time>
      </trkpt>
      <trkpt lat="48.3899" lon="2.80568">
        <ele>49</ele>
        <time>2022-07-01T20:24:35Z</time>
      </trkpt>
      <trkpt lat="48.38968" lon="2.80533">
        <ele>48</ele>
        <time>2022-07-01T20:25:18Z</time>
      </trkpt>
      <trkpt lat="48.38906" lon="2.80425">
        <ele>45</ele>
        <time>2022-07-01T20:27:24Z</time>
      </trkpt>
      <trkpt lat="48.38893" lon="2.80392">
        <ele>44</ele>
        <time>2022-07-01T20:27:58Z</time>
      </trkpt>
      <trkpt lat="48.38871" lon="2.80344">
        <ele>43</ele>
        <time>2022-07-01T20:28:50Z</time>
      </trkpt>
      <trkpt lat="48.38855" lon="2.80289">
        <ele>44</ele>
        <time>2022-07-01T20:29:43Z</time>
      </trkpt>
      <trkpt lat="48.38844" lon="2.80223">
        <ele>46</ele>
        <time>2022-07-01T20:30:43Z</time>
      </trkpt>
      <trkpt lat="48.38846" lon="2.80156">
        <ele>49</ele>
        <time>2022-07-01T20:31:43Z</time>
      </trkpt>
      <trkpt lat="48.38853" lon="2.80082">
        <ele>50</ele>
        <time>2022-07-01T20:32:49Z</time>
      </trkpt>
      <trkpt lat="48.38869" lon="2.79969">
        <ele>46</ele>
        <time>2022-07-01T20:34:31Z</time>
      </trkpt>
      <trkpt lat="48.38882" lon="2.79717">
        <ele>49</ele>
        <time>2022-07-01T20:38:15Z</time>
      </trkpt>
      <trkpt lat="48.38881" lon="2.79679">
        <ele>48</ele>
        <time>2022-07-01T20:38:49Z</time>
      </trkpt>
      <trkpt lat="48.38858" lon="2.79494">
        <ele>47</ele>
        <time>2022-07-01T20:41:36Z</time>
      </trkpt>
      <trkpt lat="48.3885" lon="2.79416">
        <ele>46</ele>
        <time>2022-07-01T20:42:46Z</time>
      </trkpt>
      <trkpt lat="48.38849" lon="2.79363">
        <ele>46</ele>
        <time>2022-07-01T20:43:33Z</time>
      </trkpt>
      <trkpt lat="48.38852" lon="2.79316">
        <ele>47</ele>
        <time>2022-07-01T20:44:15Z</time>
      </trkpt>
      <trkpt lat="48.38887" lon="2.79241">
        <ele>50</ele>
        <time>2022-07-01T20:45:36Z</time>
      </trkpt>
      <trkpt lat="48.38889" lon="2.79227">
        <ele>50</ele>
        <time>2022-07-01T20:45:49Z</time>
      </trkpt>
      <trkpt lat="48.38895" lon="2.79213">
        <ele>50</ele>
        <time>2022-07-01T20:46:03Z</time>
      </trkpt>
      <trkpt lat="48.38915" lon="2.79176">
        <ele>49</ele>
        <time>2022-07-01T20:46:46Z</time>
      </trkpt>
      <trkpt lat="48.38927" lon="2.79134">
        <ele>49</ele>
        <time>2022-07-01T20:47:26Z</time>
      </trkpt>
      <trkpt lat="48.38938" lon="2.79111">
        <ele>49</ele>
        <time>2022-07-01T20:47:51Z</time>
      </trkpt>
      <trkpt lat="48.38971" lon="2.79084">
        <ele>47</ele>
        <time>2022-07-01T20:48:41Z</time>
      </trkpt>
      <trkpt lat="48.39013" lon="2.79068">
        <ele>46</ele>
        <time>2022-07-01T20:49:39Z</time>
      </trkpt>
      <trkpt lat="48.39114" lon="2.79047">
        <ele>47</ele>
        <time>2022-07-01T20:51:55Z</time>
      </trkpt>
      <trkpt lat="48.39122" lon="2.7905">
        <ele>47</ele>
        <time>2022-07-01T20:52:06Z</time>
      </trkpt>
      <trkpt lat="48.39134" lon="2.79043">
        <ele>46</ele>
        <time>2022-07-01T20:52:23Z</time>
      </trkpt>
      <trkpt lat="48.39168" lon="2.79037">
        <ele>46</ele>
        <time>2022-07-01T20:53:09Z</time>
      </trkpt>
      <trkpt lat="48.39178" lon="2.7904">
        <ele>46</ele>
        <time>2022-07-01T20:53:23Z</time>
      </trkpt>
      <trkpt lat="48.39183" lon="2.79044">
        <ele>46</ele>
        <time>2022-07-01T20:53:30Z</time>
      </trkpt>
      <trkpt lat="48.39185" lon="2.79049">
        <ele>46</ele>
        <time>2022-07-01T20:53:36Z</time>
      </trkpt>
      <trkpt lat="48.39208" lon="2.79046">
        <ele>46</ele>
        <time>2022-07-01T20:54:06Z</time>
      </trkpt>
      <trkpt lat="48.39246" lon="2.79044">
        <ele>46</ele>
        <time>2022-07-01T20:54:57Z</time>
      </trkpt>
      <trkpt lat="48.39263" lon="2.79041">
        <ele>45</ele>
        <time>2022-07-01T20:55:20Z</time>
      </trkpt>
      <trkpt lat="48.39315" lon="2.79038">
        <ele>45</ele>
        <time>2022-07-01T20:56:29Z</time>
      </trkpt>
      <trkpt lat="48.39323" lon="2.79041">
        <ele>45</ele>
        <time>2022-07-01T20:56:40Z</time>
      </trkpt>
      <trkpt lat="48.39333" lon="2.79039">
        <ele>45</ele>
        <time>2022-07-01T20:56:54Z</time>
      </trkpt>
      <trkpt lat="48.3942" lon="2.7905">
        <ele>44</ele>
        <time>2022-07-01T20:58:50Z</time>
      </trkpt>
      <trkpt lat="48.3943" lon="2.79047">
        <ele>44</ele>
        <time>2022-07-01T20:59:04Z</time>
      </trkpt>
      <trkpt lat="48.39441" lon="2.79048">
        <ele>44</ele>
        <time>2022-07-01T20:59:19Z</time>
      </trkpt>
      <trkpt lat="48.39515" lon="2.7907">
        <ele>44</ele>
        <time>2022-07-01T21:00:59Z</time>
      </trkpt>
      <trkpt lat="48.39597" lon="2.79087">
        <ele>43</ele>
        <time>2022-07-01T21:02:50Z</time>
      </trkpt>
      <trkpt lat="48.39674" lon="2.79108">
        <ele>44</ele>
        <time>2022-07-01T21:04:34Z</time>
      </trkpt>
      <trkpt lat="48.39702" lon="2.79122">
        <ele>44</ele>
        <time>2022-07-01T21:05:14Z</time>
      </trkpt>
      <trkpt lat="48.39721" lon="2.79127">
        <ele>44</ele>
        <time>2022-07-01T21:05:39Z</time>
      </trkpt>
      <trkpt lat="48.39804" lon="2.79166">
        <ele>45</ele>
        <time>2022-07-01T21:07:35Z</time>
      </trkpt>
      <trkpt lat="48.39825" lon="2.79183">
        <ele>44</ele>
        <time>2022-07-01T21:08:07Z</time>
      </trkpt>
      <trkpt lat="48.39864" lon="2.79219">
        <ele>44</ele>
        <time>2022-07-01T21:09:08Z</time>
      </trkpt>
      <trkpt lat="48.39859" lon="2.79245">
        <ele>45</ele>
        <time>2022-07-01T21:09:32Z</time>
      </trkpt>
      <trkpt lat="48.39973" lon="2.79339">
        <ele>45</ele>
        <time>2022-07-01T21:12:26Z</time>
      </trkpt>
      <trkpt lat="48.40124" lon="2.79478">
        <ele>46</ele>
        <time>2022-07-01T21:16:22Z</time>
      </trkpt>
      <trkpt lat="48.40273" lon="2.79608">
        <ele>47</ele>
        <time>2022-07-01T21:20:12Z</time>
      </trkpt>
      <trkpt lat="48.40283" lon="2.7961">
        <ele>46</ele>
        <time>2022-07-01T21:20:25Z</time>
      </trkpt>
      <trkpt lat="48.4045" lon="2.79702">
        <ele>46</ele>
        <time>2022-07-01T21:24:22Z</time>
      </trkpt>
      <trkpt lat="48.40572" lon="2.79749">
        <ele>46</ele>
        <time>2022-07-01T21:27:10Z</time>
      </trkpt>
      <trkpt lat="48.40578" lon="2.79754">
        <ele>46</ele>
        <time>2022-07-01T21:27:19Z</time>
      </trkpt>
      <trkpt lat="48.40558" lon="2.7977">
        <ele>47</ele>
        <time>2022-07-01T21:27:50Z</time>
      </trkpt>
      <trkpt lat="48.40544" lon="2.79795">
        <ele>49</ele>
        <time>2022-07-01T21:28:19Z</time>
      </trkpt>
      <trkpt lat="48.40538" lon="2.79811">
        <ele>50</ele>
        <time>2022-07-01T21:28:35Z</time>
      </trkpt>
      <trkpt lat="48.40532" lon="2.79839">
        <ele>52</ele>
        <time>2022-07-01T21:29:01Z</time>
      </trkpt>
      <trkpt lat="48.40527" lon="2.79873">
        <ele>52</ele>
        <time>2022-07-01T21:29:32Z</time>
      </trkpt>
      <trkpt lat="48.40533" lon="2.79877">
        <ele>52</ele>
        <time>2022-07-01T21:29:41Z</time>
      </trkpt>
      <trkpt lat="48.40541" lon="2.79886">
        <ele>52</ele>
        <time>2022-07-01T21:29:54Z</time>
      </trkpt>
      <trkpt lat="48.40556" lon="2.79921">
        <ele>53</ele>
        <time>2022-07-01T21:30:31Z</time>
      </trkpt>
      <trkpt lat="48.4055" lon="2.79929">
        <ele>54</ele>
        <time>2022-07-01T21:30:42Z</time>
      </trkpt>
      <trkpt lat="48.40549" lon="2.79935">
        <ele>54</ele>
        <time>2022-07-01T21:30:47Z</time>
      </trkpt>
      <trkpt lat="48.40551" lon="2.79946">
        <ele>54</ele>
        <time>2022-07-01T21:30:57Z</time>
      </trkpt>
      <trkpt lat="48.40555" lon="2.79949">
        <ele>55</ele>
        <time>2022-07-01T21:31:03Z</time>
      </trkpt>
      <trkpt lat="48.40561" lon="2.79949">
        <ele>55</ele>
        <time>2022-07-01T21:31:11Z</time>
      </trkpt>
      <trkpt lat="48.40566" lon="2.79957">
        <ele>55</ele>
        <time>2022-07-01T21:31:21Z</time>
      </trkpt>
      <trkpt lat="48.4057" lon="2.79967">
        <ele>56</ele>
        <time>2022-07-01T21:31:31Z</time>
      </trkpt>
      <trkpt lat="48.40573" lon="2.79971">
        <ele>56</ele>
        <time>2022-07-01T21:31:37Z</time>
      </trkpt>
      <trkpt lat="48.40573" lon="2.7997">
        <ele>56</ele>
        <time>2022-07-01T21:31:37Z</time>
      </trkpt>
      <trkpt lat="48.40578" lon="2.79992">
        <ele>57</ele>
        <time>2022-07-01T21:31:58Z</time>
      </trkpt>
      <trkpt lat="48.40578" lon="2.79994">
        <ele>58</ele>
        <time>2022-07-01T21:32:00Z</time>
      </trkpt>
      <trkpt lat="48.40556" lon="2.80006">
        <ele>58</ele>
        <time>2022-07-01T21:32:31Z</time>
      </trkpt>
      <trkpt lat="48.40552" lon="2.80011">
        <ele>59</ele>
        <time>2022-07-01T21:32:38Z</time>
      </trkpt>
      <trkpt lat="48.40549" lon="2.80028">
        <ele>62</ele>
        <time>2022-07-01T21:32:54Z</time>
      </trkpt>
      <trkpt lat="48.40553" lon="2.80039">
        <ele>64</ele>
        <time>2022-07-01T21:33:05Z</time>
      </trkpt>
      <trkpt lat="48.40554" lon="2.80057">
        <ele>67</ele>
        <time>2022-07-01T21:33:21Z</time>
      </trkpt>
      <trkpt lat="48.40597" lon="2.80077">
        <ele>74</ele>
        <time>2022-07-01T21:34:21Z</time>
      </trkpt>
      <trkpt lat="48.40617" lon="2.8009">
        <ele>78</ele>
        <time>2022-07-01T21:34:50Z</time>
      </trkpt>
      <trkpt lat="48.40616" lon="2.80118">
        <ele>80</ele>
        <time>2022-07-01T21:35:15Z</time>
      </trkpt>
      <trkpt lat="48.40613" lon="2.80123">
        <ele>81</ele>
        <time>2022-07-01T21:35:21Z</time>
      </trkpt>
      <trkpt lat="48.40636" lon="2.80191">
        <ele>87</ele>
        <time>2022-07-01T21:36:28Z</time>
      </trkpt>
      <trkpt lat="48.40604" lon="2.8021">
        <ele>88</ele>
        <time>2022-07-01T21:37:14Z</time>
      </trkpt>
      <trkpt lat="48.40578" lon="2.8024">
        <ele>89</ele>
        <time>2022-07-01T21:37:58Z</time>
      </trkpt>
      <trkpt lat="48.40538" lon="2.80254">
        <ele>89</ele>
        <time>2022-07-01T21:38:53Z</time>
      </trkpt>
      <trkpt lat="48.40444" lon="2.80294">
        <ele>88</ele>
        <time>2022-07-01T21:41:03Z</time>
      </trkpt>
      <trkpt lat="48.40433" lon="2.80303">
        <ele>88</ele>
        <time>2022-07-01T21:41:20Z</time>
      </trkpt>
      <trkpt lat="48.40437" lon="2.80317">
        <ele>89</ele>
        <time>2022-07-01T21:41:33Z</time>
      </trkpt>
      <trkpt lat="48.40445" lon="2.80324">
        <ele>90</ele>
        <time>2022-07-01T21:41:45Z</time>
      </trkpt>
      <trkpt lat="48.40417" lon="2.8034">
        <ele>90</ele>
        <time>2022-07-01T21:42:25Z</time>
      </trkpt>
      <trkpt lat="48.40373" lon="2.80387">
        <ele>93</ele>
        <time>2022-07-01T21:43:37Z</time>
      </trkpt>
      <trkpt lat="48.40316" lon="2.80415">
        <ele>94</ele>
        <time>2022-07-01T21:44:57Z</time>
      </trkpt>
      <trkpt lat="48.40185" lon="2.80445">
        <ele>91</ele>
        <time>2022-07-01T21:47:54Z</time>
      </trkpt>
      <trkpt lat="48.4012" lon="2.80469">
        <ele>88</ele>
        <time>2022-07-01T21:49:24Z</time>
      </trkpt>
      <trkpt lat="48.40085" lon="2.80488">
        <ele>88</ele>
        <time>2022-07-01T21:50:13Z</time>
      </trkpt>
      <trkpt lat="48.40071" lon="2.80494">
        <ele>89</ele>
        <time>2022-07-01T21:50:33Z</time>
      </trkpt>
      <trkpt lat="48.40081" lon="2.80555">
        <ele>90</ele>
        <time>2022-07-01T21:51:28Z</time>
      </trkpt>
      <trkpt lat="48.40099" lon="2.80626">
        <ele>95</ele>
        <time>2022-07-01T21:52:36Z</time>
      </trkpt>
      <trkpt lat="48.40053" lon="2.80638">
        <ele>96</ele>
        <time>2022-07-01T21:53:38Z</time>
      </trkpt>
      <trkpt lat="48.4002" lon="2.80644">
        <ele>96</ele>
        <time>2022-07-01T21:54:22Z</time>
      </trkpt>
      <trkpt lat="48.40009" lon="2.80648">
        <ele>96</ele>
        <time>2022-07-01T21:54:37Z</time>
      </trkpt>
      <trkpt lat="48.40002" lon="2.80654">
        <ele>96</ele>
        <time>2022-07-01T21:54:48Z</time>
      </trkpt>
      <trkpt lat="48.39958" lon="2.80723">
        <ele>99</ele>
        <time>2022-07-01T21:56:13Z</time>
      </trkpt>
      <trkpt lat="48.39945" lon="2.80739">
        <ele>99</ele>
        <time>2022-07-01T21:56:35Z</time>
      </trkpt>
      <trkpt lat="48.39889" lon="2.80836">
        <ele>101</ele>
        <time>2022-07-01T21:58:29Z</time>
      </trkpt>
      <trkpt lat="48.39866" lon="2.80873">
        <ele>102</ele>
        <time>2022-07-01T21:59:14Z</time>
      </trkpt>
      <trkpt lat="48.39879" lon="2.81046">
        <ele>108</ele>
        <time>2022-07-01T22:01:48Z</time>
      </trkpt>
      <trkpt lat="48.39893" lon="2.81305">
        <ele>114</ele>
        <time>2022-07-01T22:05:39Z</time>
      </trkpt>
      <trkpt lat="48.39925" lon="2.81786">
        <ele>117</ele>
        <time>2022-07-01T22:12:47Z</time>
      </trkpt>
      <trkpt lat="48.39747" lon="2.81825">
        <ele>116</ele>
        <time>2022-07-01T22:16:47Z</time>
      </trkpt>
      <trkpt lat="48.39758" lon="2.8208">
        <ele>111</ele>
        <time>2022-07-01T22:20:33Z</time>
      </trkpt>
      <trkpt lat="48.3977" lon="2.822">
        <ele>107</ele>
        <time>2022-07-01T22:22:21Z</time>
      </trkpt>
      <trkpt lat="48.39727" lon="2.82229">
        <ele>103</ele>
        <time>2022-07-01T22:23:24Z</time>
      </trkpt>
      <trkpt lat="48.39704" lon="2.82238">
        <ele>101</ele>
        <time>2022-07-01T22:23:55Z</time>
      </trkpt>
      <trkpt lat="48.39612" lon="2.82286">
        <ele>94</ele>
        <time>2022-07-01T22:26:05Z</time>
      </trkpt>
      <trkpt lat="48.39588" lon="2.82298">
        <ele>93</ele>
        <time>2022-07-01T22:26:39Z</time>
      </trkpt>
      <trkpt lat="48.39555" lon="2.82288">
        <ele>90</ele>
        <time>2022-07-01T22:27:24Z</time>
      </trkpt>
      <trkpt lat="48.39536" lon="2.82279">
        <ele>88</ele>
        <time>2022-07-01T22:27:51Z</time>
      </trkpt>
      <trkpt lat="48.39522" lon="2.82297">
        <ele>87</ele>
        <time>2022-07-01T22:28:15Z</time>
      </trkpt>
      <trkpt lat="48.39505" lon="2.82304">
        <ele>85</ele>
        <time>2022-07-01T22:28:39Z</time>
      </trkpt>
      <trkpt lat="48.39487" lon="2.82295">
        <ele>81</ele>
        <time>2022-07-01T22:29:04Z</time>
      </trkpt>
      <trkpt lat="48.39474" lon="2.82285">
        <ele>79</ele>
        <time>2022-07-01T22:29:23Z</time>
      </trkpt>
      <trkpt lat="48.3946" lon="2.82284">
        <ele>75</ele>
        <time>2022-07-01T22:29:42Z</time>
      </trkpt>
      <trkpt lat="48.39449" lon="2.82293">
        <ele>73</ele>
        <time>2022-07-01T22:29:59Z</time>
      </trkpt>
      <trkpt lat="48.39451" lon="2.82248">
        <ele>74</ele>
        <time>2022-07-01T22:30:39Z</time>
      </trkpt>
      <trkpt lat="48.39457" lon="2.82188">
        <ele>76</ele>
        <time>2022-07-01T22:31:33Z</time>
      </trkpt>
      <trkpt lat="48.3946" lon="2.82134">
        <ele>78</ele>
        <time>2022-07-01T22:32:21Z</time>
      </trkpt>
      <trkpt lat="48.39461" lon="2.8207">
        <ele>79</ele>
        <time>2022-07-01T22:33:17Z</time>
      </trkpt>
      <trkpt lat="48.39461" lon="2.81965">
        <ele>81</ele>
        <time>2022-07-01T22:34:50Z</time>
      </trkpt>
      <trkpt lat="48.39453" lon="2.81848">
        <ele>80</ele>
        <time>2022-07-01T22:36:35Z</time>
      </trkpt>
      <trkpt lat="48.39456" lon="2.81809">
        <ele>82</ele>
        <time>2022-07-01T22:37:09Z</time>
      </trkpt>
      <trkpt lat="48.39463" lon="2.81766">
        <ele>85</ele>
        <time>2022-07-01T22:37:49Z</time>
      </trkpt>
      <trkpt lat="48.39439" lon="2.81553">
        <ele>87</ele>
        <time>2022-07-01T22:41:00Z</time>
      </trkpt>
      <trkpt lat="48.39433" lon="2.81435">
        <ele>94</ele>
        <time>2022-07-01T22:42:45Z</time>
      </trkpt>
      <trkpt lat="48.39411" lon="2.81328">
        <ele>96</ele>
        <time>2022-07-01T22:44:24Z</time>
      </trkpt>
      <trkpt lat="48.394" lon="2.81264">
        <ele>94</ele>
        <time>2022-07-01T22:45:23Z</time>
      </trkpt>
      <trkpt lat="48.39376" lon="2.81267">
        <ele>87</ele>
        <time>2022-07-01T22:45:55Z</time>
      </trkpt>
      <trkpt lat="48.39355" lon="2.81274">
        <ele>81</ele>
        <time>2022-07-01T22:46:24Z</time>
      </trkpt>
      <trkpt lat="48.39348" lon="2.81273">
        <ele>79</ele>
        <time>2022-07-01T22:46:33Z</time>
      </trkpt>
      <trkpt lat="48.39343" lon="2.81268">
        <ele>78</ele>
        <time>2022-07-01T22:46:41Z</time>
      </trkpt>
      <trkpt lat="48.39287" lon="2.81107">
        <ele>75</ele>
        <time>2022-07-01T22:49:22Z</time>
      </trkpt>
      <trkpt lat="48.39276" lon="2.81093">
        <ele>73</ele>
        <time>2022-07-01T22:49:41Z</time>
      </trkpt>
      <trkpt lat="48.39215" lon="2.80958">
        <ele>71</ele>
        <time>2022-07-01T22:52:06Z</time>
      </trkpt>
      <trkpt lat="48.3918" lon="2.8085">
        <ele>71</ele>
        <time>2022-07-01T22:53:52Z</time>
      </trkpt>
      <trkpt lat="48.39142" lon="2.80724">
        <ele>69</ele>
        <time>2022-07-01T22:55:55Z</time>
      </trkpt>
      <trkpt lat="48.39136" lon="2.8067">
        <ele>71</ele>
        <time>2022-07-01T22:56:44Z</time>
      </trkpt>
      <trkpt lat="48.39135" lon="2.80635">
        <ele>71</ele>
        <time>2022-07-01T22:57:15Z</time>
      </trkpt>
      <trkpt lat="48.39137" lon="2.80626">
        <ele>72</ele>
        <time>2022-07-01T22:57:23Z</time>
      </trkpt>
      <trkpt lat="48.3914" lon="2.80621">
        <ele>72</ele>
        <time>2022-07-01T22:57:29Z</time>
      </trkpt>
      <trkpt lat="48.39159" lon="2.80611">
        <ele>76</ele>
        <time>2022-07-01T22:57:56Z</time>
      </trkpt>
      <trkpt lat="48.39185" lon="2.80581">
        <ele>77</ele>
        <time>2022-07-01T22:58:40Z</time>
      </trkpt>
      <trkpt lat="48.39225" lon="2.80558">
        <ele>77</ele>
        <time>2022-07-01T22:59:37Z</time>
      </trkpt>
      <trkpt lat="48.39226" lon="2.8053">
        <ele>75</ele>
        <time>2022-07-01T23:00:02Z</time>
      </trkpt>
      <trkpt lat="48.39195" lon="2.80525">
        <ele>74</ele>
        <time>2022-07-01T23:00:43Z</time>
      </trkpt>
      <trkpt lat="48.39201" lon="2.8052">
        <ele>74</ele>
        <time>2022-07-01T23:00:52Z</time>
      </trkpt>
      <trkpt lat="48.39208" lon="2.80506">
        <ele>73</ele>
        <time>2022-07-01T23:01:08Z</time>
      </trkpt>
      <trkpt lat="48.39189" lon="2.80495">
        <ele>72</ele>
        <time>2022-07-01T23:01:35Z</time>
      </trkpt>
      <trkpt lat="48.3917" lon="2.80475">
        <ele>71</ele>
        <time>2022-07-01T23:02:06Z</time>
      </trkpt>
      <trkpt lat="48.39164" lon="2.80459">
        <ele>70</ele>
        <time>2022-07-01T23:02:22Z</time>
      </trkpt>
      <trkpt lat="48.39154" lon="2.80419">
        <ele>68</ele>
        <time>2022-07-01T23:03:00Z</time>
      </trkpt>
      <trkpt lat="48.39146" lon="2.80408">
        <ele>67</ele>
        <time>2022-07-01T23:03:15Z</time>
      </trkpt>
      <trkpt lat="48.39142" lon="2.80398">
        <ele>66</ele>
        <time>2022-07-01T23:03:25Z</time>
      </trkpt>
      <trkpt lat="48.39134" lon="2.80399">
        <ele>66</ele>
        <time>2022-07-01T23:03:36Z</time>
      </trkpt>
      <trkpt lat="48.39106" lon="2.80389">
        <ele>65</ele>
        <time>2022-07-01T23:04:14Z</time>
      </trkpt>
      <trkpt lat="48.39094" lon="2.80382">
        <ele>65</ele>
        <time>2022-07-01T23:04:31Z</time>
      </trkpt>
      <trkpt lat="48.39083" lon="2.8037">
        <ele>64</ele>
        <time>2022-07-01T23:04:49Z</time>
      </trkpt>
      <trkpt lat="48.39046" lon="2.8032">
        <ele>61</ele>
        <time>2022-07-01T23:05:56Z</time>
      </trkpt>
      <trkpt lat="48.39019" lon="2.80304">
        <ele>60</ele>
        <time>2022-07-01T23:06:34Z</time>
      </trkpt>
      <trkpt lat="48.38998" lon="2.80334">
        <ele>58</ele>
        <time>2022-07-01T23:07:13Z</time>
      </trkpt>
      <trkpt lat="48.38994" lon="2.80361">
        <ele>56</ele>
        <time>2022-07-01T23:07:38Z</time>
      </trkpt>
      <trkpt lat="48.38996" lon="2.80385">
        <ele>55</ele>
        <time>2022-07-01T23:07:59Z</time>
      </trkpt>
      <trkpt lat="48.39035" lon="2.80544">
        <ele>56</ele>
        <time>2022-07-01T23:10:29Z</time>
      </trkpt>
      <trkpt lat="48.39049" lon="2.80607">
        <ele>56</ele>
        <time>2022-07-01T23:11:28Z</time>
      </trkpt>
      <trkpt lat="48.39055" lon="2.80642">
        <ele>55</ele>
        <time>2022-07-01T23:12:00Z</time>
      </trkpt>
      <trkpt lat="48.39039" lon="2.80657">
        <ele>52</ele>
        <time>2022-07-01T23:12:25Z</time>
      </trkpt>
      <trkpt lat="48.38929" lon="2.80777">
        <ele>45</ele>
        <time>2022-07-01T23:15:26Z</time>
      </trkpt>
      <trkpt lat="48.38913" lon="2.80784">
        <ele>45</ele>
        <time>2022-07-01T23:15:49Z</time>
      </trkpt>
      <trkpt lat="48.38897" lon="2.80767">
        <ele>45</ele>
        <time>2022-07-01T23:16:15Z</time>
      </trkpt>
      <trkpt lat="48.38889" lon="2.8072">
        <ele>45</ele>
        <time>2022-07-01T23:16:58Z</time>
      </trkpt>
      <trkpt lat="48.38827" lon="2.80588">
        <ele>44</ele>
        <time>2022-07-01T23:19:21Z</time>
      </trkpt>
      <trkpt lat="48.38785" lon="2.80494">
        <ele>45</ele>
        <time>2022-07-01T23:21:02Z</time>
      </trkpt>
      <trkpt lat="48.38752" lon="2.80445">
        <ele>45</ele>
        <time>2022-07-01T23:22:03Z</time>
      </trkpt>
      <trkpt lat="48.38747" lon="2.80447">
        <ele>45</ele>
        <time>2022-07-01T23:22:10Z</time>
      </trkpt>
      <trkpt lat="48.38742" lon="2.80412">
        <ele>44</ele>
        <time>2022-07-01T23:22:42Z</time>
      </trkpt>
      <trkpt lat="48.38682" lon="2.80319">
        <ele>44</ele>
        <time>2022-07-01T23:24:37Z</time>
      </trkpt>
      <trkpt lat="48.3867" lon="2.8031">
        <ele>44</ele>
        <time>2022-07-01T23:24:55Z</time>
      </trkpt>
      <trkpt lat="48.38657" lon="2.80311">
        <ele>45</ele>
        <time>2022-07-01T23:25:12Z</time>
      </trkpt>
      <trkpt lat="48.38646" lon="2.80322">
        <ele>45</ele>
        <time>2022-07-01T23:25:30Z</time>
      </trkpt>
      <trkpt lat="48.38637" lon="2.80322">
        <ele>45</ele>
        <time>2022-07-01T23:25:42Z</time>
      </trkpt>
      <trkpt lat="48.38627" lon="2.80329">
        <ele>45</ele>
        <time>2022-07-01T23:25:57Z</time>
      </trkpt>
      <trkpt lat="48.38584" lon="2.80409">
        <ele>45</ele>
        <time>2022-07-01T23:27:28Z</time>
      </trkpt>
      <trkpt lat="48.38559" lon="2.80459">
        <ele>45</ele>
        <time>2022-07-01T23:28:23Z</time>
      </trkpt>
      <trkpt lat="48.38617" lon="2.80543">
        <ele>47</ele>
        <time>2022-07-01T23:30:11Z</time>
      </trkpt>
      <trkpt lat="48.38626" lon="2.80543">
        <ele>47</ele>
        <time>2022-07-01T23:30:23Z</time>
      </trkpt>
      <trkpt lat="48.3868" lon="2.80623">
        <ele>48</ele>
        <time>2022-07-01T23:32:04Z</time>
      </trkpt>
      <trkpt lat="48.3866" lon="2.80654">
        <ele>48</ele>
        <time>2022-07-01T23:32:42Z</time>
      </trkpt>
      <trkpt lat="48.38674" lon="2.80678">
        <ele>48</ele>
        <time>2022-07-01T23:33:10Z</time>
      </trkpt>
      <trkpt lat="48.38661" lon="2.80704">
        <ele>48</ele>
        <time>2022-07-01T23:33:39Z</time>
      </trkpt>
      <trkpt lat="48.38679" lon="2.80734">
        <ele>49</ele>
        <time>2022-07-01T23:34:15Z</time>
      </trkpt>
      <trkpt lat="48.38696" lon="2.80755">
        <ele>50</ele>
        <time>2022-07-01T23:34:44Z</time>
      </trkpt>
      <trkpt lat="48.38721" lon="2.80811">
        <ele>50</ele>
        <time>2022-07-01T23:35:44Z</time>
      </trkpt>
      <trkpt lat="48.38759" lon="2.80888">
        <ele>51</ele>
        <time>2022-07-01T23:37:09Z</time>
      </trkpt>
      <trkpt lat="48.38725" lon="2.80926">
        <ele>51</ele>
        <time>2022-07-01T23:38:06Z</time>
      </trkpt>
      <trkpt lat="48.38712" lon="2.80944">
        <ele>51</ele>
        <time>2022-07-01T23:38:29Z</time>
      </trkpt>
      <trkpt lat="48.38699" lon="2.80957">
        <ele>51</ele>
        <time>2022-07-01T23:38:50Z</time>
      </trkpt>
      <trkpt lat="48.38668" lon="2.80886">
        <ele>50</ele>
        <time>2022-07-01T23:40:05Z</time>
      </trkpt>
      <trkpt lat="48.38611" lon="2.80771">
        <ele>48</ele>
        <time>2022-07-01T23:42:13Z</time>
      </trkpt>
      <trkpt lat="48.38602" lon="2.80761">
        <ele>48</ele>
        <time>2022-07-01T23:42:27Z</time>
      </trkpt>
      <trkpt lat="48.38594" lon="2.80757">
        <ele>47</ele>
        <time>2022-07-01T23:42:39Z</time>
      </trkpt>
      <trkpt lat="48.38583" lon="2.80775">
        <ele>48</ele>
        <time>2022-07-01T23:43:00Z</time>
      </trkpt>
      <trkpt lat="48.38494" lon="2.80604">
        <ele>45</ele>
        <time>2022-07-01T23:46:13Z</time>
      </trkpt>
      <trkpt lat="48.38485" lon="2.8061">
        <ele>45</ele>
        <time>2022-07-01T23:46:26Z</time>
      </trkpt>
      <trkpt lat="48.38345" lon="2.80819">
        <ele>45</ele>
        <time>2022-07-01T23:50:49Z</time>
      </trkpt>
      <trkpt lat="48.38185" lon="2.81051">
        <ele>45</ele>
        <time>2022-07-01T23:55:46Z</time>
      </trkpt>
      <trkpt lat="48.38168" lon="2.81079">
        <ele>45</ele>
        <time>2022-07-01T23:56:19Z</time>
      </trkpt>
      <trkpt lat="48.3813" lon="2.81154">
        <ele>46</ele>
        <time>2022-07-01T23:57:43Z</time>
      </trkpt>
      <trkpt lat="48.38092" lon="2.81238">
        <ele>49</ele>
        <time>2022-07-01T23:59:13Z</time>
      </trkpt>
      <trkpt lat="48.38037" lon="2.81365">
        <ele>52</ele>
        <time>2022-07-02T00:01:27Z</time>
      </trkpt>
      <trkpt lat="48.38027" lon="2.81392">
        <ele>51</ele>
        <time>2022-07-02T00:01:55Z</time>
      </trkpt>
      <trkpt lat="48.38012" lon="2.81424">
        <ele>50</ele>
        <time>2022-07-02T00:02:29Z</time>
      </trkpt>
      <trkpt lat="48.37877" lon="2.81738">
        <ele>53</ele>
        <time>2022-07-02T00:08:01Z</time>
      </trkpt>
      <trkpt lat="48.37857" lon="2.81778">
        <ele>51</ele>
        <time>2022-07-02T00:08:45Z</time>
      </trkpt>
      <trkpt lat="48.37812" lon="2.81839">
        <ele>49</ele>
        <time>2022-07-02T00:10:06Z</time>
      </trkpt>
      <trkpt lat="48.37795" lon="2.81857">
        <ele>50</ele>
        <time>2022-07-02T00:10:34Z</time>
      </trkpt>
      <trkpt lat="48.3778" lon="2.81878">
        <ele>50</ele>
        <time>2022-07-02T00:11:01Z</time>
      </trkpt>
      <trkpt lat="48.37752" lon="2.81912">
        <ele>47</ele>
        <time>2022-07-02T00:11:49Z</time>
      </trkpt>
      <trkpt lat="48.37703" lon="2.81994">
        <ele>49</ele>
        <time>2022-07-02T00:13:27Z</time>
      </trkpt>
      <trkpt lat="48.37699" lon="2.82008">
        <ele>49</ele>
        <time>2022-07-02T00:13:40Z</time>
      </trkpt>
      <trkpt lat="48.37693" lon="2.8202">
        <ele>49</ele>
        <time>2022-07-02T00:13:54Z</time>
      </trkpt>
      <trkpt lat="48.37675" lon="2.82">
        <ele>48</ele>
        <time>2022-07-02T00:14:24Z</time>
      </trkpt>
      <trkpt lat="48.37663" lon="2.81995">
        <ele>48</ele>
        <time>2022-07-02T00:14:40Z</time>
      </trkpt>
      <trkpt lat="48.37615" lon="2.81999">
        <ele>49</ele>
        <time>2022-07-02T00:15:44Z</time>
      </trkpt>
      <trkpt lat="48.37582" lon="2.8201">
        <ele>49</ele>
        <time>2022-07-02T00:16:29Z</time>
      </trkpt>
      <trkpt lat="48.37581" lon="2.82026">
        <ele>49</ele>
        <time>2022-07-02T00:16:44Z</time>
      </trkpt>
    </trkseg>
  </trk>
</gpx>